sensor_id;sensor_type;location;lat;lon;timestamp;temperature;humidity
23669;DHT22;12011;47.422;15.018;2022-09-09T00:00:18;12.20;99.90
23669;DHT22;12011;47.422;15.018;2022-09-09T00:02:57;12.20;99.90
23669;DHT22;12011;47.422;15.018;2022-09-09T00:05:38;12.20;99.90
23669;DHT22;12011;47.422;15.018;2022-09-09T00:08:19;12.20;99.90
23669;DHT22;12011;47.422;15.018;2022-09-09T00:10:58;12.10;99.90
23669;DHT22;12011;47.422;15.018;2022-09-09T00:13:38;12.10;99.90
23669;DHT22;12011;47.422;15.018;2022-09-09T00:16:18;12.20;99.90
23669;DHT22;12011;47.422;15.018;2022-09-09T00:18:57;12.20;99.90
23669;DHT22;12011;47.422;15.018;2022-09-09T00:21:35;12.20;99.90
23669;DHT22;12011;47.422;15.018;2022-09-09T00:24:14;12.10;99.90
23669;DHT22;12011;47.422;15.018;2022-09-09T00:26:58;12.20;99.90
23669;DHT22;12011;47.422;15.018;2022-09-09T00:29:40;12.20;99.90
23669;DHT22;12011;47.422;15.018;2022-09-09T00:32:15;12.20;99.90
23669;DHT22;12011;47.422;15.018;2022-09-09T00:34:49;12.20;99.90
23669;DHT22;12011;47.422;15.018;2022-09-09T00:37:24;12.20;99.90
23669;DHT22;12011;47.422;15.018;2022-09-09T00:39:59;12.10;99.90
23669;DHT22;12011;47.422;15.018;2022-09-09T00:42:41;12.10;99.90
23669;DHT22;12011;47.422;15.018;2022-09-09T00:45:42;12.10;99.90
23669;DHT22;12011;47.422;15.018;2022-09-09T00:48:30;12.10;99.90
23669;DHT22;12011;47.422;15.018;2022-09-09T00:51:13;12.10;99.90
23669;DHT22;12011;47.422;15.018;2022-09-09T00:54:13;12.10;99.90
23669;DHT22;12011;47.422;15.018;2022-09-09T00:57:07;12.00;99.90
23669;DHT22;12011;47.422;15.018;2022-09-09T00:59:48;12.10;99.90
23669;DHT22;12011;47.422;15.018;2022-09-09T01:02:33;12.00;99.90
23669;DHT22;12011;47.422;15.018;2022-09-09T01:05:13;11.90;99.90
23669;DHT22;12011;47.422;15.018;2022-09-09T01:07:49;11.80;99.90
23669;DHT22;12011;47.422;15.018;2022-09-09T01:10:30;11.70;99.90
23669;DHT22;12011;47.422;15.018;2022-09-09T01:13:15;11.60;99.90
23669;DHT22;12011;47.422;15.018;2022-09-09T01:15:48;11.50;99.90
23669;DHT22;12011;47.422;15.018;2022-09-09T01:18:27;11.40;99.90
23669;DHT22;12011;47.422;15.018;2022-09-09T01:21:08;11.30;99.90
23669;DHT22;12011;47.422;15.018;2022-09-09T01:24:05;11.20;99.90
23669;DHT22;12011;47.422;15.018;2022-09-09T01:27:23;11.20;99.90
23669;DHT22;12011;47.422;15.018;2022-09-09T01:29:53;11.20;99.90
23669;DHT22;12011;47.422;15.018;2022-09-09T01:32:41;11.20;99.90
23669;DHT22;12011;47.422;15.018;2022-09-09T01:35:22;11.20;99.90
23669;DHT22;12011;47.422;15.018;2022-09-09T01:38:00;11.20;99.90
23669;DHT22;12011;47.422;15.018;2022-09-09T01:40:30;11.10;99.90
23669;DHT22;12011;47.422;15.018;2022-09-09T01:43:04;11.20;99.90
23669;DHT22;12011;47.422;15.018;2022-09-09T01:45:34;11.20;99.90
23669;DHT22;12011;47.422;15.018;2022-09-09T01:48:05;11.20;99.90
23669;DHT22;12011;47.422;15.018;2022-09-09T01:50:42;11.30;99.90
23669;DHT22;12011;47.422;15.018;2022-09-09T01:53:14;11.30;99.90
23669;DHT22;12011;47.422;15.018;2022-09-09T01:55:54;11.30;99.90
23669;DHT22;12011;47.422;15.018;2022-09-09T01:58:46;11.30;99.90
23669;DHT22;12011;47.422;15.018;2022-09-09T02:01:34;11.30;99.90
23669;DHT22;12011;47.422;15.018;2022-09-09T02:04:24;11.30;99.90
23669;DHT22;12011;47.422;15.018;2022-09-09T02:07:02;11.40;99.90
23669;DHT22;12011;47.422;15.018;2022-09-09T02:09:36;11.40;99.90
23669;DHT22;12011;47.422;15.018;2022-09-09T02:12:14;11.40;99.90
23669;DHT22;12011;47.422;15.018;2022-09-09T02:14:59;11.40;99.90
23669;DHT22;12011;47.422;15.018;2022-09-09T02:17:41;11.40;99.90
23669;DHT22;12011;47.422;15.018;2022-09-09T02:20:15;11.40;99.90
23669;DHT22;12011;47.422;15.018;2022-09-09T02:22:56;11.40;99.90
23669;DHT22;12011;47.422;15.018;2022-09-09T02:25:29;11.40;99.90
23669;DHT22;12011;47.422;15.018;2022-09-09T02:28:10;11.50;99.90
23669;DHT22;12011;47.422;15.018;2022-09-09T02:30:46;11.50;99.90
23669;DHT22;12011;47.422;15.018;2022-09-09T02:33:28;11.50;99.90
23669;DHT22;12011;47.422;15.018;2022-09-09T02:36:03;11.40;99.90
23669;DHT22;12011;47.422;15.018;2022-09-09T02:38:40;11.40;99.90
23669;DHT22;12011;47.422;15.018;2022-09-09T02:41:14;11.40;99.90
23669;DHT22;12011;47.422;15.018;2022-09-09T02:43:44;11.40;99.90
23669;DHT22;12011;47.422;15.018;2022-09-09T02:46:32;11.40;99.90
23669;DHT22;12011;47.422;15.018;2022-09-09T02:49:11;11.40;99.90
23669;DHT22;12011;47.422;15.018;2022-09-09T02:51:53;11.40;99.90
23669;DHT22;12011;47.422;15.018;2022-09-09T02:54:30;11.50;99.90
23669;DHT22;12011;47.422;15.018;2022-09-09T02:57:10;11.50;99.90
23669;DHT22;12011;47.422;15.018;2022-09-09T02:59:44;11.50;99.90
23669;DHT22;12011;47.422;15.018;2022-09-09T03:02:17;11.50;99.90
23669;DHT22;12011;47.422;15.018;2022-09-09T03:04:51;11.50;99.90
23669;DHT22;12011;47.422;15.018;2022-09-09T03:07:21;11.50;99.90
23669;DHT22;12011;47.422;15.018;2022-09-09T03:09:52;11.50;99.90
23669;DHT22;12011;47.422;15.018;2022-09-09T03:12:24;11.50;99.90
23669;DHT22;12011;47.422;15.018;2022-09-09T03:14:54;11.40;99.90
23669;DHT22;12011;47.422;15.018;2022-09-09T03:17:27;11.50;99.90
23669;DHT22;12011;47.422;15.018;2022-09-09T03:19:57;11.50;99.90
23669;DHT22;12011;47.422;15.018;2022-09-09T03:22:28;11.50;99.90
23669;DHT22;12011;47.422;15.018;2022-09-09T03:25:00;11.50;99.90
23669;DHT22;12011;47.422;15.018;2022-09-09T03:27:30;11.50;99.90
23669;DHT22;12011;47.422;15.018;2022-09-09T03:30:00;11.50;99.90
23669;DHT22;12011;47.422;15.018;2022-09-09T03:32:34;11.50;99.90
23669;DHT22;12011;47.422;15.018;2022-09-09T03:35:04;11.60;99.90
23669;DHT22;12011;47.422;15.018;2022-09-09T03:37:34;11.60;99.90
23669;DHT22;12011;47.422;15.018;2022-09-09T03:40:06;11.70;99.90
23669;DHT22;12011;47.422;15.018;2022-09-09T03:42:37;11.70;99.90
23669;DHT22;12011;47.422;15.018;2022-09-09T03:45:09;11.70;99.90
23669;DHT22;12011;47.422;15.018;2022-09-09T03:47:43;11.70;99.90
23669;DHT22;12011;47.422;15.018;2022-09-09T03:50:14;11.70;99.90
23669;DHT22;12011;47.422;15.018;2022-09-09T03:52:46;11.70;99.90
23669;DHT22;12011;47.422;15.018;2022-09-09T03:55:20;11.70;99.90
23669;DHT22;12011;47.422;15.018;2022-09-09T03:57:50;11.70;99.90
23669;DHT22;12011;47.422;15.018;2022-09-09T04:00:20;11.70;99.90
23669;DHT22;12011;47.422;15.018;2022-09-09T04:02:54;11.70;99.90
23669;DHT22;12011;47.422;15.018;2022-09-09T04:05:24;11.70;99.90
23669;DHT22;12011;47.422;15.018;2022-09-09T04:07:53;11.70;99.90
23669;DHT22;12011;47.422;15.018;2022-09-09T04:10:24;11.70;99.90
23669;DHT22;12011;47.422;15.018;2022-09-09T04:12:55;11.70;99.90
23669;DHT22;12011;47.422;15.018;2022-09-09T04:15:25;11.70;99.90
23669;DHT22;12011;47.422;15.018;2022-09-09T04:17:57;11.60;99.90
23669;DHT22;12011;47.422;15.018;2022-09-09T04:20:27;11.60;99.90
23669;DHT22;12011;47.422;15.018;2022-09-09T04:22:57;11.60;99.90
23669;DHT22;12011;47.422;15.018;2022-09-09T04:25:26;11.60;99.90
23669;DHT22;12011;47.422;15.018;2022-09-09T04:27:57;11.60;99.90
23669;DHT22;12011;47.422;15.018;2022-09-09T04:30:28;11.50;99.90
23669;DHT22;12011;47.422;15.018;2022-09-09T04:33:00;11.50;99.90
23669;DHT22;12011;47.422;15.018;2022-09-09T04:35:30;11.60;99.90
23669;DHT22;12011;47.422;15.018;2022-09-09T04:37:59;11.60;99.90
23669;DHT22;12011;47.422;15.018;2022-09-09T04:40:31;11.60;99.90
23669;DHT22;12011;47.422;15.018;2022-09-09T04:43:03;11.60;99.90
23669;DHT22;12011;47.422;15.018;2022-09-09T04:45:33;11.60;99.90
23669;DHT22;12011;47.422;15.018;2022-09-09T04:48:06;11.60;99.90
23669;DHT22;12011;47.422;15.018;2022-09-09T04:50:36;11.60;99.90
23669;DHT22;12011;47.422;15.018;2022-09-09T04:53:07;11.60;99.90
23669;DHT22;12011;47.422;15.018;2022-09-09T04:55:38;11.70;99.90
23669;DHT22;12011;47.422;15.018;2022-09-09T04:58:08;11.70;99.90
23669;DHT22;12011;47.422;15.018;2022-09-09T05:00:39;11.70;99.90
23669;DHT22;12011;47.422;15.018;2022-09-09T05:03:11;11.80;99.90
23669;DHT22;12011;47.422;15.018;2022-09-09T05:05:42;11.80;99.90
23669;DHT22;12011;47.422;15.018;2022-09-09T05:08:12;11.80;99.90
23669;DHT22;12011;47.422;15.018;2022-09-09T05:10:41;11.80;99.90
23669;DHT22;12011;47.422;15.018;2022-09-09T05:13:12;11.80;99.90
23669;DHT22;12011;47.422;15.018;2022-09-09T05:15:41;11.90;99.90
23669;DHT22;12011;47.422;15.018;2022-09-09T05:18:15;12.00;99.90
23669;DHT22;12011;47.422;15.018;2022-09-09T05:20:44;12.00;99.90
23669;DHT22;12011;47.422;15.018;2022-09-09T05:23:14;12.00;99.90
23669;DHT22;12011;47.422;15.018;2022-09-09T05:25:43;12.00;99.90
23669;DHT22;12011;47.422;15.018;2022-09-09T05:28:22;12.00;99.90
23669;DHT22;12011;47.422;15.018;2022-09-09T05:30:57;12.00;99.90
23669;DHT22;12011;47.422;15.018;2022-09-09T05:33:33;12.00;99.90
23669;DHT22;12011;47.422;15.018;2022-09-09T05:36:06;12.10;99.90
23669;DHT22;12011;47.422;15.018;2022-09-09T05:38:37;12.20;99.90
23669;DHT22;12011;47.422;15.018;2022-09-09T05:41:07;12.20;99.90
23669;DHT22;12011;47.422;15.018;2022-09-09T05:43:39;12.30;99.90
23669;DHT22;12011;47.422;15.018;2022-09-09T05:46:12;12.30;99.90
23669;DHT22;12011;47.422;15.018;2022-09-09T05:48:47;12.30;99.90
23669;DHT22;12011;47.422;15.018;2022-09-09T05:51:21;12.30;99.90
23669;DHT22;12011;47.422;15.018;2022-09-09T05:53:55;12.40;99.90
23669;DHT22;12011;47.422;15.018;2022-09-09T05:56:28;12.40;99.90
23669;DHT22;12011;47.422;15.018;2022-09-09T05:58:59;12.50;99.90
23669;DHT22;12011;47.422;15.018;2022-09-09T06:01:31;12.50;99.90
23669;DHT22;12011;47.422;15.018;2022-09-09T06:04:05;12.50;99.90
23669;DHT22;12011;47.422;15.018;2022-09-09T06:06:37;12.60;99.90
23669;DHT22;12011;47.422;15.018;2022-09-09T06:09:14;12.60;99.90
23669;DHT22;12011;47.422;15.018;2022-09-09T06:11:44;12.70;99.90
23669;DHT22;12011;47.422;15.018;2022-09-09T06:14:15;12.70;99.90
23669;DHT22;12011;47.422;15.018;2022-09-09T06:16:47;12.60;99.90
23669;DHT22;12011;47.422;15.018;2022-09-09T06:19:23;12.60;99.90
23669;DHT22;12011;47.422;15.018;2022-09-09T06:21:56;12.70;99.90
23669;DHT22;12011;47.422;15.018;2022-09-09T06:24:27;12.70;99.90
23669;DHT22;12011;47.422;15.018;2022-09-09T06:26:59;12.70;99.90
23669;DHT22;12011;47.422;15.018;2022-09-09T06:29:32;12.70;99.90
23669;DHT22;12011;47.422;15.018;2022-09-09T06:32:03;12.70;99.90
23669;DHT22;12011;47.422;15.018;2022-09-09T06:34:37;12.80;99.90
23669;DHT22;12011;47.422;15.018;2022-09-09T06:37:06;12.90;99.90
23669;DHT22;12011;47.422;15.018;2022-09-09T06:39:47;12.90;99.90
23669;DHT22;12011;47.422;15.018;2022-09-09T06:42:18;13.00;99.90
23669;DHT22;12011;47.422;15.018;2022-09-09T06:44:57;13.10;99.90
23669;DHT22;12011;47.422;15.018;2022-09-09T06:47:34;13.20;99.90
23669;DHT22;12011;47.422;15.018;2022-09-09T06:50:07;13.60;99.90
23669;DHT22;12011;47.422;15.018;2022-09-09T06:52:39;13.70;99.90
23669;DHT22;12011;47.422;15.018;2022-09-09T06:55:09;14.00;99.90
23669;DHT22;12011;47.422;15.018;2022-09-09T06:57:39;16.20;99.90
23669;DHT22;12011;47.422;15.018;2022-09-09T07:00:14;17.90;99.00
23669;DHT22;12011;47.422;15.018;2022-09-09T07:02:44;17.70;96.80
23669;DHT22;12011;47.422;15.018;2022-09-09T07:05:16;17.80;96.20
23669;DHT22;12011;47.422;15.018;2022-09-09T07:07:47;17.60;93.80
23669;DHT22;12011;47.422;15.018;2022-09-09T07:10:19;19.00;88.60
23669;DHT22;12011;47.422;15.018;2022-09-09T07:12:50;19.90;72.20
23669;DHT22;12011;47.422;15.018;2022-09-09T07:15:24;19.80;70.90
23669;DHT22;12011;47.422;15.018;2022-09-09T07:17:54;19.30;79.20
23669;DHT22;12011;47.422;15.018;2022-09-09T07:20:27;19.20;74.60
23669;DHT22;12011;47.422;15.018;2022-09-09T07:22:57;19.50;73.60
23669;DHT22;12011;47.422;15.018;2022-09-09T07:25:27;19.40;71.00
23669;DHT22;12011;47.422;15.018;2022-09-09T07:27:57;18.80;78.70
23669;DHT22;12011;47.422;15.018;2022-09-09T07:30:28;18.50;76.50
23669;DHT22;12011;47.422;15.018;2022-09-09T07:32:58;18.30;78.40
23669;DHT22;12011;47.422;15.018;2022-09-09T07:35:32;18.00;81.90
23669;DHT22;12011;47.422;15.018;2022-09-09T07:38:03;18.30;75.80
23669;DHT22;12011;47.422;15.018;2022-09-09T07:40:35;19.60;80.10
23669;DHT22;12011;47.422;15.018;2022-09-09T07:43:26;19.60;68.30
23669;DHT22;12011;47.422;15.018;2022-09-09T07:46:18;19.60;76.70
23669;DHT22;12011;47.422;15.018;2022-09-09T07:49:10;19.40;79.20
23669;DHT22;12011;47.422;15.018;2022-09-09T07:52:03;19.20;71.00
23669;DHT22;12011;47.422;15.018;2022-09-09T07:54:53;19.00;78.90
23669;DHT22;12011;47.422;15.018;2022-09-09T07:57:43;18.60;73.80
23669;DHT22;12011;47.422;15.018;2022-09-09T08:00:34;18.80;81.00
23669;DHT22;12011;47.422;15.018;2022-09-09T08:03:25;18.70;83.80
23669;DHT22;12011;47.422;15.018;2022-09-09T08:06:15;18.50;76.10
23669;DHT22;12011;47.422;15.018;2022-09-09T08:09:09;18.90;79.20
23669;DHT22;12011;47.422;15.018;2022-09-09T08:12:00;19.10;78.00
23669;DHT22;12011;47.422;15.018;2022-09-09T08:14:52;19.80;72.60
23669;DHT22;12011;47.422;15.018;2022-09-09T08:17:46;19.80;70.30
23669;DHT22;12011;47.422;15.018;2022-09-09T08:20:37;19.70;75.10
23669;DHT22;12011;47.422;15.018;2022-09-09T08:23:27;20.00;67.40
23669;DHT22;12011;47.422;15.018;2022-09-09T08:26:22;20.10;71.10
23669;DHT22;12011;47.422;15.018;2022-09-09T08:29:13;21.00;70.90
23669;DHT22;12011;47.422;15.018;2022-09-09T08:32:04;21.70;66.00
23669;DHT22;12011;47.422;15.018;2022-09-09T08:34:57;23.50;59.90
23669;DHT22;12011;47.422;15.018;2022-09-09T08:37:46;22.60;57.20
23669;DHT22;12011;47.422;15.018;2022-09-09T08:40:43;22.20;61.50
23669;DHT22;12011;47.422;15.018;2022-09-09T08:43:42;22.20;62.90
23669;DHT22;12011;47.422;15.018;2022-09-09T08:46:42;21.40;62.70
23669;DHT22;12011;47.422;15.018;2022-09-09T08:49:50;22.00;63.60
23669;DHT22;12011;47.422;15.018;2022-09-09T08:52:54;22.50;59.80
23669;DHT22;12011;47.422;15.018;2022-09-09T08:55:51;22.30;62.50
23669;DHT22;12011;47.422;15.018;2022-09-09T08:58:56;21.20;62.50
23669;DHT22;12011;47.422;15.018;2022-09-09T09:02:06;20.40;65.20
23669;DHT22;12011;47.422;15.018;2022-09-09T09:05:18;20.90;67.40
23669;DHT22;12011;47.422;15.018;2022-09-09T09:08:20;21.00;64.20
23669;DHT22;12011;47.422;15.018;2022-09-09T09:11:15;20.30;65.20
23669;DHT22;12011;47.422;15.018;2022-09-09T09:14:18;20.00;67.70
23669;DHT22;12011;47.422;15.018;2022-09-09T09:17:14;19.70;69.60
23669;DHT22;12011;47.422;15.018;2022-09-09T09:20:12;19.00;73.50
23669;DHT22;12011;47.422;15.018;2022-09-09T09:23:05;18.40;76.20
23669;DHT22;12011;47.422;15.018;2022-09-09T09:26:00;18.10;80.20
23669;DHT22;12011;47.422;15.018;2022-09-09T09:28:51;17.90;80.80
23669;DHT22;12011;47.422;15.018;2022-09-09T09:31:50;17.70;89.10
23669;DHT22;12011;47.422;15.018;2022-09-09T09:34:42;17.30;87.30
23669;DHT22;12011;47.422;15.018;2022-09-09T09:37:41;16.90;89.40
23669;DHT22;12011;47.422;15.018;2022-09-09T09:40:32;16.80;97.60
23669;DHT22;12011;47.422;15.018;2022-09-09T09:43:28;16.80;97.80
23669;DHT22;12011;47.422;15.018;2022-09-09T09:46:23;16.80;99.90
23669;DHT22;12011;47.422;15.018;2022-09-09T09:49:26;16.70;98.20
23669;DHT22;12011;47.422;15.018;2022-09-09T09:52:21;16.60;99.90
23669;DHT22;12011;47.422;15.018;2022-09-09T09:55:14;16.40;99.90
23669;DHT22;12011;47.422;15.018;2022-09-09T09:58:14;16.20;99.90
23669;DHT22;12011;47.422;15.018;2022-09-09T10:01:05;16.30;99.90
23669;DHT22;12011;47.422;15.018;2022-09-09T10:04:15;16.20;99.90
23669;DHT22;12011;47.422;15.018;2022-09-09T10:07:17;16.00;99.90
23669;DHT22;12011;47.422;15.018;2022-09-09T10:10:15;16.20;99.90
23669;DHT22;12011;47.422;15.018;2022-09-09T10:13:18;16.50;99.90
23669;DHT22;12011;47.422;15.018;2022-09-09T10:16:25;16.70;99.90
23669;DHT22;12011;47.422;15.018;2022-09-09T10:19:31;17.00;99.90
23669;DHT22;12011;47.422;15.018;2022-09-09T10:22:28;17.10;99.90
23669;DHT22;12011;47.422;15.018;2022-09-09T10:25:36;17.40;99.90
23669;DHT22;12011;47.422;15.018;2022-09-09T10:28:54;17.60;99.90
23669;DHT22;12011;47.422;15.018;2022-09-09T10:32:16;17.80;99.90
23669;DHT22;12011;47.422;15.018;2022-09-09T10:35:27;17.60;96.90
23669;DHT22;12011;47.422;15.018;2022-09-09T10:38:29;17.50;96.80
23669;DHT22;12011;47.422;15.018;2022-09-09T10:41:39;17.40;99.90
23669;DHT22;12011;47.422;15.018;2022-09-09T10:44:49;17.30;99.90
23669;DHT22;12011;47.422;15.018;2022-09-09T10:48:03;17.30;99.90
23669;DHT22;12011;47.422;15.018;2022-09-09T10:51:13;17.20;99.90
23669;DHT22;12011;47.422;15.018;2022-09-09T10:54:34;17.20;99.90
23669;DHT22;12011;47.422;15.018;2022-09-09T10:57:38;17.10;99.90
23669;DHT22;12011;47.422;15.018;2022-09-09T11:00:51;16.70;99.90
23669;DHT22;12011;47.422;15.018;2022-09-09T11:03:49;16.70;99.90
23669;DHT22;12011;47.422;15.018;2022-09-09T11:06:48;16.40;99.90
23669;DHT22;12011;47.422;15.018;2022-09-09T11:09:53;16.30;99.90
23669;DHT22;12011;47.422;15.018;2022-09-09T11:12:50;16.20;99.90
23669;DHT22;12011;47.422;15.018;2022-09-09T11:15:49;16.20;99.90
23669;DHT22;12011;47.422;15.018;2022-09-09T11:18:43;16.20;99.90
23669;DHT22;12011;47.422;15.018;2022-09-09T11:21:40;16.30;99.90
23669;DHT22;12011;47.422;15.018;2022-09-09T11:24:37;16.20;99.90
23669;DHT22;12011;47.422;15.018;2022-09-09T11:27:41;16.40;99.90
23669;DHT22;12011;47.422;15.018;2022-09-09T11:30:47;16.60;99.90
23669;DHT22;12011;47.422;15.018;2022-09-09T11:37:29;16.80;99.90
23669;DHT22;12011;47.422;15.018;2022-09-09T11:40:36;16.80;99.90
23669;DHT22;12011;47.422;15.018;2022-09-09T11:43:32;16.60;99.90
23669;DHT22;12011;47.422;15.018;2022-09-09T11:46:36;16.60;99.90
23669;DHT22;12011;47.422;15.018;2022-09-09T11:49:39;16.70;99.90
23669;DHT22;12011;47.422;15.018;2022-09-09T11:52:38;16.50;99.90
23669;DHT22;12011;47.422;15.018;2022-09-09T11:55:31;16.40;99.90
23669;DHT22;12011;47.422;15.018;2022-09-09T11:58:30;16.40;99.90
23669;DHT22;12011;47.422;15.018;2022-09-09T12:01:34;16.50;99.90
23669;DHT22;12011;47.422;15.018;2022-09-09T12:04:35;16.40;99.90
23669;DHT22;12011;47.422;15.018;2022-09-09T12:07:35;16.50;99.90
23669;DHT22;12011;47.422;15.018;2022-09-09T12:10:31;16.50;99.90
23669;DHT22;12011;47.422;15.018;2022-09-09T12:13:27;16.50;99.90
23669;DHT22;12011;47.422;15.018;2022-09-09T12:16:30;16.50;99.90
23669;DHT22;12011;47.422;15.018;2022-09-09T12:19:26;16.50;99.90
23669;DHT22;12011;47.422;15.018;2022-09-09T12:22:31;16.50;99.90
23669;DHT22;12011;47.422;15.018;2022-09-09T12:25:34;16.50;99.90
23669;DHT22;12011;47.422;15.018;2022-09-09T12:28:47;16.60;99.90
23669;DHT22;12011;47.422;15.018;2022-09-09T12:31:50;16.70;99.90
23669;DHT22;12011;47.422;15.018;2022-09-09T12:34:52;16.70;99.90
23669;DHT22;12011;47.422;15.018;2022-09-09T12:37:50;16.80;99.90
23669;DHT22;12011;47.422;15.018;2022-09-09T12:40:55;16.80;99.90
23669;DHT22;12011;47.422;15.018;2022-09-09T12:43:48;16.70;99.90
23669;DHT22;12011;47.422;15.018;2022-09-09T12:46:42;16.70;99.90
23669;DHT22;12011;47.422;15.018;2022-09-09T12:49:36;16.60;99.90
23669;DHT22;12011;47.422;15.018;2022-09-09T12:52:34;16.50;99.90
23669;DHT22;12011;47.422;15.018;2022-09-09T12:55:28;16.50;99.90
23669;DHT22;12011;47.422;15.018;2022-09-09T12:58:21;16.50;99.90
23669;DHT22;12011;47.422;15.018;2022-09-09T13:01:22;16.30;99.90
23669;DHT22;12011;47.422;15.018;2022-09-09T13:04:21;16.10;99.90
23669;DHT22;12011;47.422;15.018;2022-09-09T13:07:11;16.10;99.90
23669;DHT22;12011;47.422;15.018;2022-09-09T13:10:03;16.00;99.90
23669;DHT22;12011;47.422;15.018;2022-09-09T13:12:54;16.00;99.90
23669;DHT22;12011;47.422;15.018;2022-09-09T13:15:51;16.00;99.90
23669;DHT22;12011;47.422;15.018;2022-09-09T13:18:52;16.10;99.90
23669;DHT22;12011;47.422;15.018;2022-09-09T13:21:42;16.20;99.90
23669;DHT22;12011;47.422;15.018;2022-09-09T13:24:34;16.30;99.90
23669;DHT22;12011;47.422;15.018;2022-09-09T13:27:28;16.20;99.90
23669;DHT22;12011;47.422;15.018;2022-09-09T13:30:23;16.10;99.90
23669;DHT22;12011;47.422;15.018;2022-09-09T13:33:23;16.10;99.90
23669;DHT22;12011;47.422;15.018;2022-09-09T13:36:31;16.00;99.90
23669;DHT22;12011;47.422;15.018;2022-09-09T13:39:22;16.00;99.90
23669;DHT22;12011;47.422;15.018;2022-09-09T13:42:24;16.00;99.90
23669;DHT22;12011;47.422;15.018;2022-09-09T13:45:19;15.90;99.90
23669;DHT22;12011;47.422;15.018;2022-09-09T13:48:18;15.90;99.90
23669;DHT22;12011;47.422;15.018;2022-09-09T13:51:35;16.00;99.90
23669;DHT22;12011;47.422;15.018;2022-09-09T13:54:28;16.00;99.90
23669;DHT22;12011;47.422;15.018;2022-09-09T13:57:23;16.00;99.90
23669;DHT22;12011;47.422;15.018;2022-09-09T14:00:15;15.90;99.90
23669;DHT22;12011;47.422;15.018;2022-09-09T14:03:05;16.00;99.90
23669;DHT22;12011;47.422;15.018;2022-09-09T14:05:55;16.00;99.90
23669;DHT22;12011;47.422;15.018;2022-09-09T14:08:49;15.90;99.90
23669;DHT22;12011;47.422;15.018;2022-09-09T14:11:41;15.80;99.90
23669;DHT22;12011;47.422;15.018;2022-09-09T14:14:31;15.70;99.90
23669;DHT22;12011;47.422;15.018;2022-09-09T14:17:21;15.70;99.90
23669;DHT22;12011;47.422;15.018;2022-09-09T14:20:11;15.60;99.90
23669;DHT22;12011;47.422;15.018;2022-09-09T14:23:02;15.50;99.90
23669;DHT22;12011;47.422;15.018;2022-09-09T14:25:54;15.50;99.90
23669;DHT22;12011;47.422;15.018;2022-09-09T14:28:45;15.50;99.90
23669;DHT22;12011;47.422;15.018;2022-09-09T14:31:35;15.40;99.90
23669;DHT22;12011;47.422;15.018;2022-09-09T14:34:24;15.40;99.90
23669;DHT22;12011;47.422;15.018;2022-09-09T14:37:15;15.40;99.90
23669;DHT22;12011;47.422;15.018;2022-09-09T14:40:06;15.40;99.90
23669;DHT22;12011;47.422;15.018;2022-09-09T14:43:00;15.40;99.90
23669;DHT22;12011;47.422;15.018;2022-09-09T14:45:50;15.40;99.90
23669;DHT22;12011;47.422;15.018;2022-09-09T14:48:43;15.40;99.90
23669;DHT22;12011;47.422;15.018;2022-09-09T14:51:34;15.40;99.90
23669;DHT22;12011;47.422;15.018;2022-09-09T14:54:24;15.30;99.90
23669;DHT22;12011;47.422;15.018;2022-09-09T14:57:15;15.20;99.90
23669;DHT22;12011;47.422;15.018;2022-09-09T15:00:09;15.30;99.90
23669;DHT22;12011;47.422;15.018;2022-09-09T15:03:00;15.20;99.90
23669;DHT22;12011;47.422;15.018;2022-09-09T15:05:50;15.20;99.90
23669;DHT22;12011;47.422;15.018;2022-09-09T15:08:42;15.30;99.90
23669;DHT22;12011;47.422;15.018;2022-09-09T15:11:35;15.30;99.90
23669;DHT22;12011;47.422;15.018;2022-09-09T15:14:26;15.30;99.90
23669;DHT22;12011;47.422;15.018;2022-09-09T15:17:19;15.20;99.90
23669;DHT22;12011;47.422;15.018;2022-09-09T15:20:13;15.20;99.90
23669;DHT22;12011;47.422;15.018;2022-09-09T15:23:03;15.30;99.90
23669;DHT22;12011;47.422;15.018;2022-09-09T15:25:56;15.40;99.90
23669;DHT22;12011;47.422;15.018;2022-09-09T15:28:46;15.30;99.90
23669;DHT22;12011;47.422;15.018;2022-09-09T15:31:37;15.20;99.90
23669;DHT22;12011;47.422;15.018;2022-09-09T15:34:29;15.30;99.90
23669;DHT22;12011;47.422;15.018;2022-09-09T15:37:19;15.10;99.90
23669;DHT22;12011;47.422;15.018;2022-09-09T15:40:10;15.10;99.90
23669;DHT22;12011;47.422;15.018;2022-09-09T15:43:02;15.00;99.90
23669;DHT22;12011;47.422;15.018;2022-09-09T15:45:59;14.90;99.90
23669;DHT22;12011;47.422;15.018;2022-09-09T15:48:56;14.80;99.90
23669;DHT22;12011;47.422;15.018;2022-09-09T15:51:52;14.70;99.90
23669;DHT22;12011;47.422;15.018;2022-09-09T15:54:43;14.60;99.90
23669;DHT22;12011;47.422;15.018;2022-09-09T15:57:33;14.50;99.90
23669;DHT22;12011;47.422;15.018;2022-09-09T16:00:23;14.40;99.90
23669;DHT22;12011;47.422;15.018;2022-09-09T16:03:14;14.40;99.90
23669;DHT22;12011;47.422;15.018;2022-09-09T16:06:05;14.30;99.90
23669;DHT22;12011;47.422;15.018;2022-09-09T16:08:58;14.20;99.90
23669;DHT22;12011;47.422;15.018;2022-09-09T16:11:49;14.20;99.90
23669;DHT22;12011;47.422;15.018;2022-09-09T16:14:39;14.20;99.90
23669;DHT22;12011;47.422;15.018;2022-09-09T16:17:29;14.10;99.90
23669;DHT22;12011;47.422;15.018;2022-09-09T16:20:23;14.10;99.90
23669;DHT22;12011;47.422;15.018;2022-09-09T16:23:13;14.10;99.90
23669;DHT22;12011;47.422;15.018;2022-09-09T16:26:06;14.10;99.90
23669;DHT22;12011;47.422;15.018;2022-09-09T16:28:57;14.10;99.90
23669;DHT22;12011;47.422;15.018;2022-09-09T16:31:49;14.00;99.90
23669;DHT22;12011;47.422;15.018;2022-09-09T16:34:40;14.10;99.90
23669;DHT22;12011;47.422;15.018;2022-09-09T16:37:30;14.00;99.90
23669;DHT22;12011;47.422;15.018;2022-09-09T16:40:20;13.90;99.90
23669;DHT22;12011;47.422;15.018;2022-09-09T16:43:12;13.90;99.90
23669;DHT22;12011;47.422;15.018;2022-09-09T16:46:03;13.90;99.90
23669;DHT22;12011;47.422;15.018;2022-09-09T16:49:01;13.90;99.90
23669;DHT22;12011;47.422;15.018;2022-09-09T16:51:51;13.80;99.90
23669;DHT22;12011;47.422;15.018;2022-09-09T16:54:41;13.80;99.90
23669;DHT22;12011;47.422;15.018;2022-09-09T16:57:31;13.70;99.90
23669;DHT22;12011;47.422;15.018;2022-09-09T17:00:24;13.70;99.90
23669;DHT22;12011;47.422;15.018;2022-09-09T17:03:14;13.80;99.90
23669;DHT22;12011;47.422;15.018;2022-09-09T17:06:09;13.70;99.90
23669;DHT22;12011;47.422;15.018;2022-09-09T17:09:02;13.70;99.90
23669;DHT22;12011;47.422;15.018;2022-09-09T17:11:54;13.80;99.90
23669;DHT22;12011;47.422;15.018;2022-09-09T17:14:44;13.70;99.90